createdAt,value
2022-08-14T00:02:52.260Z,1007.729
2022-08-14T00:07:55.882Z,1007.761
2022-08-14T00:12:58.033Z,1007.717
2022-08-14T00:18:00.259Z,1007.773
2022-08-14T00:23:08.441Z,1007.791
2022-08-14T00:28:05.603Z,1007.741
2022-08-14T00:33:15.560Z,1007.722
2022-08-14T00:38:10.814Z,1007.693
2022-08-14T00:43:13.470Z,1007.641
2022-08-14T00:48:34.105Z,1007.568
2022-08-14T00:53:18.455Z,1007.547
2022-08-14T00:58:27.715Z,1007.543
2022-08-14T01:03:23.785Z,1007.482
2022-08-14T01:08:52.531Z,1007.467
2022-08-14T01:13:42.462Z,1007.481
2022-08-14T01:23:41.658Z,1007.414
2022-08-14T01:28:47.480Z,1007.35
2022-08-14T01:33:44.720Z,1007.397
2022-08-14T01:43:56.171Z,1007.316
2022-08-14T01:48:53.441Z,1007.369
2022-08-14T01:53:56.462Z,1007.415
2022-08-14T01:58:59.021Z,1007.403
2022-08-14T02:04:01.812Z,1007.383
2022-08-14T02:09:06.739Z,1007.349
2022-08-14T02:14:07.849Z,1007.358
2022-08-14T02:19:09.633Z,1007.261
2022-08-14T02:24:38.581Z,1007.272
2022-08-14T02:29:15.170Z,1007.216
2022-08-14T02:34:20.395Z,1007.183
2022-08-14T02:39:20.661Z,1007.191
2022-08-14T02:44:29.330Z,1007.154
2022-08-14T02:49:26.098Z,1007.073
2022-08-14T02:54:28.896Z,1007.05
2022-08-14T02:59:33.582Z,1007.009
2022-08-14T03:04:34.457Z,1006.982
2022-08-14T03:14:39.636Z,1006.898
2022-08-14T03:19:42.282Z,1006.844
2022-08-14T03:24:44.893Z,1006.864
2022-08-14T03:29:47.508Z,1006.902
2022-08-14T03:34:55.307Z,1006.84
2022-08-14T03:39:52.659Z,1006.87
2022-08-14T03:45:17.902Z,1006.88
2022-08-14T03:49:58.263Z,1006.892
2022-08-14T03:55:00.642Z,1006.837
2022-08-14T04:00:03.087Z,1006.798
2022-08-14T04:05:08.080Z,1006.73
2022-08-14T04:10:08.585Z,1006.739
2022-08-14T04:15:11.183Z,1006.713
2022-08-14T04:20:13.637Z,1006.692
2022-08-14T04:25:16.226Z,1006.68
2022-08-14T04:30:22.246Z,1006.722
2022-08-14T04:35:23.359Z,1006.745
2022-08-14T04:40:27.735Z,1006.744
2022-08-14T04:45:29.595Z,1006.645
2022-08-14T04:50:33.925Z,1006.673
2022-08-14T04:55:32.992Z,1006.688
2022-08-14T05:05:38.787Z,1006.682
2022-08-14T05:10:44.045Z,1006.611
2022-08-14T05:15:44.333Z,1006.656
2022-08-14T05:21:05.282Z,1006.593
2022-08-14T05:30:53.022Z,1006.519
2022-08-14T05:35:55.875Z,1006.493
2022-08-14T05:46:04.231Z,1006.329
2022-08-14T05:51:06.821Z,1006.273
2022-08-14T05:56:09.636Z,1006.314
2022-08-14T06:06:15.221Z,1006.321
2022-08-14T06:17:03.395Z,1006.212
2022-08-14T06:22:06.571Z,1006.149
2022-08-14T06:27:09.910Z,1006.158
2022-08-14T06:32:36.440Z,1006.043
2022-08-14T06:37:16.753Z,1006.052
2022-08-14T06:42:18.305Z,1006.097
2022-08-14T06:47:19.991Z,1006.087
2022-08-14T06:52:22.969Z,1006.201
2022-08-14T06:57:25.661Z,1006.19
2022-08-14T07:07:31.116Z,1006.142
2022-08-14T07:12:52.141Z,1006.087
2022-08-14T07:17:36.851Z,1006.011
2022-08-14T07:22:50.220Z,1005.923
2022-08-14T07:27:42.804Z,1005.859
2022-08-14T07:32:45.528Z,1005.942
2022-08-14T07:37:48.229Z,1005.922
2022-08-14T07:42:50.928Z,1005.893
2022-08-14T07:47:53.494Z,1005.825
2022-08-14T07:52:55.984Z,1005.768
2022-08-14T07:57:58.717Z,1005.638
2022-08-14T08:03:01.439Z,1005.676
2022-08-14T08:08:08.227Z,1005.756
2022-08-14T08:13:09.421Z,1005.809
2022-08-14T08:23:20.547Z,1005.657
2022-08-14T08:28:25.251Z,1005.665
2022-08-14T08:33:25.053Z,1005.616
2022-08-14T08:39:14.423Z,1005.602
2022-08-14T08:43:30.051Z,1005.605
2022-08-14T08:48:36.410Z,1005.475
2022-08-14T08:53:35.395Z,1005.434
2022-08-14T08:58:38.186Z,1005.383
2022-08-14T09:03:40.891Z,1005.339
2022-08-14T09:08:43.663Z,1005.367
2022-08-14T09:13:46.342Z,1005.278
2022-08-14T09:18:49.382Z,1005.325
2022-08-14T09:29:54.029Z,1005.122
2022-08-14T09:34:58.589Z,1005.125
2022-08-14T09:39:55.397Z,1005.035
2022-08-14T09:44:58.167Z,1005.06
2022-08-14T09:50:00.848Z,1004.984
2022-08-14T09:55:03.559Z,1004.917
2022-08-14T10:00:06.249Z,1004.912
2022-08-14T10:05:08.967Z,1004.889
2022-08-14T10:10:22.972Z,1004.738
2022-08-14T10:15:14.737Z,1004.561
2022-08-14T10:20:39.280Z,1004.55
2022-08-14T10:25:30.736Z,1004.418
2022-08-14T10:30:34.433Z,1004.452
2022-08-14T10:35:37.014Z,1004.342
2022-08-14T10:40:44.437Z,1004.147
2022-08-14T10:45:46.466Z,1004.142
2022-08-14T10:50:48.371Z,1004.057
2022-08-14T10:55:51.330Z,1003.961
2022-08-14T11:00:56.753Z,1003.943
2022-08-14T11:05:56.997Z,1003.885
2022-08-14T11:10:59.794Z,1003.825
2022-08-14T11:16:02.484Z,1003.848
2022-08-14T11:21:05.137Z,1003.863
2022-08-14T11:26:08.202Z,1003.724
2022-08-14T11:36:18.069Z,1003.78
2022-08-14T11:41:17.013Z,1003.758
2022-08-14T11:46:30.061Z,1003.677
2022-08-14T11:56:25.413Z,1003.689
2022-08-14T12:01:27.559Z,1003.415
2022-08-14T12:06:35.754Z,1003.515
2022-08-14T12:11:32.539Z,1003.479
2022-08-14T12:16:36.133Z,1003.331
2022-08-14T12:21:38.829Z,1003.343
2022-08-14T12:26:41.561Z,1003.243
2022-08-14T12:31:46.693Z,1003.231
2022-08-14T12:36:46.864Z,1003.148
2022-08-14T12:41:49.422Z,1003.058
2022-08-14T12:46:52.476Z,1002.9
2022-08-14T12:51:55.500Z,1002.902
2022-08-14T12:56:58.675Z,1002.749
2022-08-14T13:02:03.312Z,1002.711
2022-08-14T13:07:04.457Z,1002.648
2022-08-14T13:12:31.632Z,1002.583
2022-08-14T13:17:11.260Z,1002.546
2022-08-14T13:22:19.666Z,1002.411
2022-08-14T13:32:20.065Z,1002.217
2022-08-14T13:37:22.925Z,1002.129
2022-08-14T13:42:25.553Z,1002.003
2022-08-14T13:47:28.291Z,1001.882
2022-08-14T13:52:48.431Z,1001.909
2022-08-14T13:57:33.857Z,1001.818
2022-08-14T14:02:41.115Z,1001.716
2022-08-14T14:07:44.233Z,1001.642
2022-08-14T14:12:55.623Z,1001.611
2022-08-14T14:17:49.202Z,1001.518
2022-08-14T14:23:02.061Z,1001.397
2022-08-14T14:27:54.682Z,1001.241
2022-08-14T14:33:02.378Z,1001.29
2022-08-14T14:38:00.413Z,1001.306
2022-08-14T14:43:03.085Z,1001.357
2022-08-14T14:48:05.878Z,1001.188
2022-08-14T14:53:12.579Z,1001.15
2022-08-14T14:58:11.491Z,1001.194
2022-08-14T15:03:14.395Z,1001.117
2022-08-14T15:08:26.509Z,1001.112
2022-08-14T15:13:20.003Z,1001.097
2022-08-14T15:18:36.527Z,1001.025
2022-08-14T15:23:25.511Z,1001.071
2022-08-14T15:28:28.386Z,1000.973
2022-08-14T15:33:35.596Z,1000.92
2022-08-14T15:48:43.888Z,1000.799
2022-08-14T16:03:50.712Z,1000.672
2022-08-14T16:08:57.783Z,1000.537
2022-08-14T16:13:57.407Z,1000.568
2022-08-14T16:18:59.219Z,1000.531
2022-08-14T16:24:01.722Z,1000.44
2022-08-14T16:29:04.346Z,1000.439
2022-08-14T16:34:45.255Z,1000.25
2022-08-14T16:39:10.057Z,1000.194
2022-08-14T16:44:14.006Z,1000.123
2022-08-14T16:49:15.337Z,1000.143
2022-08-14T16:54:21.212Z,1000.087
2022-08-14T17:04:24.615Z,1000.053
2022-08-14T17:09:27.714Z,1000.061
2022-08-14T17:24:51.225Z,999.8599
2022-08-14T17:29:44.390Z,999.7986
2022-08-14T17:34:42.762Z,999.7838
2022-08-14T17:39:49.904Z,999.8133
2022-08-14T17:44:48.209Z,999.8345
2022-08-14T17:49:51.609Z,999.7717
2022-08-14T17:54:58.947Z,999.7572
2022-08-14T17:59:56.414Z,999.772
2022-08-14T18:04:59.257Z,999.8261
2022-08-14T18:10:31.847Z,999.9325
2022-08-14T18:15:06.828Z,999.9778
2022-08-14T18:20:16.149Z,1000.021
2022-08-14T18:25:18.429Z,1000.103
2022-08-14T18:30:58.071Z,1000.059
2022-08-14T18:35:58.071Z,1000.08
2022-08-14T18:40:58.188Z,1000.211
2022-08-14T18:46:01.039Z,1000.152
2022-08-14T18:51:03.991Z,1000.218
2022-08-14T18:56:09.418Z,1000.244
2022-08-14T19:01:09.143Z,1000.296
2022-08-14T19:06:11.408Z,1000.341
2022-08-14T19:11:13.919Z,1000.373
2022-08-14T19:16:16.972Z,1000.368
2022-08-14T19:21:19.843Z,1000.451
2022-08-14T19:26:34.432Z,1000.49
2022-08-14T19:31:25.292Z,1000.476
2022-08-14T19:36:28.985Z,1000.393
2022-08-14T19:41:30.710Z,1000.448
2022-08-14T19:46:33.358Z,1000.373
2022-08-14T19:51:36.545Z,1000.27
2022-08-14T19:56:38.918Z,1000.338
2022-08-14T20:06:46.622Z,1000.331
2022-08-14T20:12:01.050Z,1000.224
2022-08-14T20:16:49.297Z,1000.232
2022-08-14T20:42:02.172Z,1000.141
2022-08-14T20:47:04.855Z,1000.144
2022-08-14T20:52:18.667Z,1000.171
2022-08-14T20:57:10.764Z,1000.235
2022-08-14T21:02:24.237Z,1000.118
2022-08-14T21:07:23.731Z,1000.164
2022-08-14T21:12:34.549Z,1000.11
2022-08-14T21:17:21.139Z,1000.127
2022-08-14T21:22:24.133Z,1000.18
2022-08-14T21:27:26.830Z,1000.098
2022-08-14T21:32:29.639Z,999.9922
2022-08-14T21:37:32.296Z,999.9293
2022-08-14T21:42:35.883Z,999.9204
2022-08-14T21:47:37.627Z,999.9769
2022-08-14T21:52:49.976Z,999.941
2022-08-14T21:57:53.491Z,999.9272
2022-08-14T22:07:54.039Z,999.8926
2022-08-14T22:12:59.007Z,999.8178
2022-08-14T22:17:56.404Z,999.8328
2022-08-14T22:22:59.074Z,999.7885
2022-08-14T22:28:01.569Z,999.7961
2022-08-14T22:33:04.221Z,999.8589
2022-08-14T22:38:32.643Z,999.8835
2022-08-14T22:43:09.232Z,999.7566
2022-08-14T22:48:11.828Z,999.6896
2022-08-14T22:58:17.598Z,999.6036
2022-08-14T23:03:19.963Z,999.5997
2022-08-14T23:08:57.292Z,999.5618
2022-08-14T23:13:24.909Z,999.5572
2022-08-14T23:18:29.596Z,999.5966
2022-08-14T23:23:30.083Z,999.5153
2022-08-14T23:28:56.243Z,999.5597
2022-08-14T23:33:35.717Z,999.5447
2022-08-14T23:38:38.329Z,999.5638
2022-08-14T23:43:40.903Z,999.4698
2022-08-14T23:48:44.524Z,999.4271
2022-08-14T23:53:47.555Z,999.3808
2022-08-14T23:58:49.444Z,999.3474
